Tiempo atmosférico en la estación meteorológica de Calanda, Teruel (459 m.)



Fecha
DESCASC
Temp. máxima en grados centígrados (hora)
DESCASC
Temp. mínima en grados centígrados (hora)
DESCASC
Temp. media en grados centígrados
DESCASC
Racha de viento máxima en m/sg (hora)
DESCASC
Velocidad máxima media en intervalos de 10 minutos(hora)
DESCASC
Precipitaciones diarias en mm
DESCASC
Precipitaciones de 00:00 a 06:00 en mm
DESCASC
Precipitaciones de 06:00 a 12:00 en mm
DESCASC
Precipitaciones de 12:00 a 18:00 en mm
DESCASC
Precipitaciones de 18:00 a 24:00 en mm
DESCASC
20-09-2018 31.5 (15:30) 18 (07:20) 24.8 8.06 (19:40) 4.44 (21:20) 0 0 0 0 0
19-09-2018 30 (16:20) 16.6 (07:30) 23.3 5.56 (16:50) 3.61 (02:20) 0 0 0 0 0
18-09-2018 29.3 (18:20) 17 (08:40) 23.1 10.83 (01:20) 5.83 (01:20) 0 0 0 0 0
17-09-2018 29.8 (15:50) 17.6 (08:10) 23.7 10 (17:00) 6.11 (16:50) 0.2 0 0 0.2 0
16-09-2018 30.2 (15:50) 16.5 (00:00) 23.4 8.33 (16:50) 3.89 (06:50) 0 0 0 0 0
15-09-2018 26 (17:30) 17.1 (00:00) 21.6 9.17 (19:30) 5.83 (19:30) 0 0 0 0 0
14-09-2018 28.3 (18:30) 15.2 (00:00) 21.7 5.28 (18:00) 3.61 (07:20) 0 0 0 0 0
13-09-2018 28.3 (16:50) 18.1 (00:00) 23.2 6.94 (17:20) 3.89 (06:20) 0 0 0 0 0
12-09-2018 28.5 (15:50) 18.7 (00:00) 23.6 8.89 (16:50) 5.28 (16:30) 0 0 0 0 0
11-09-2018 27.7 (16:30) 17.6 (00:00) 22.7 8.06 (22:40) 4.44 (22:40) 0 0 0 0 0
10-09-2018 27.4 (18:40) 18.4 (00:00) 22.9 6.67 (20:30) 4.44 (20:30) 0.2 0 0 0 0.2
09-09-2018 28.1 (17:10) 18.1 (00:00) 23.1 11.11 (00:10) 6.11 (00:30) 0 0 0 0 0
08-09-2018 28 (13:20) 16.1 (00:00) 22.1 11.11 (14:20) 6.39 (16:10) 0 0 0 0 0
07-09-2018 25 (16:40) 15.3 (00:00) 20.2 8.89 (02:40) 5 (02:10) 0 0 0 0 0
06-09-2018 24.3 (16:40) 17.6 (00:00) 20.9 5.83 (00:10) 3.33 (00:10) 0 0 0 0 0
05-09-2018 25.4 (13:40) 17.1 (00:00) 21.3 13.33 (17:30) 6.67 (17:30) 23 2.4 0 20.4 0.2
04-09-2018 30.1 (17:30) 16.9 (00:00) 23.5 13.33 (23:00) 6.11 (22:50) 0 0 0 0 0
03-09-2018 30.8 (18:40) 19.6 (00:00) 25.2 14.44 (20:20) 7.22 (20:00) 1.6 0 0.6 0.2 0.8
02-09-2018 31.2 (16:50) 17.3 (00:00) 24.3 6.11 (15:30) 3.61 (02:00) 0 0 0 0 0
01-09-2018 30.5 (17:30) 17.6 (00:00) 24.1 7.22 (15:40) 3.89 (01:50) 0 0 0 0 0
31-08-2018 29.9 (17:30) 18.7 (00:00) 24.3 6.11 (13:10) 3.61 (14:30) 0 0 0 0 0
30-08-2018 29.6 (18:10) 17.6 (00:00) 23.6 6.67 (12:50) 3.61 (03:20) 0 0 0 0 0
29-08-2018 29.8 (18:40) 18.3 (00:00) 24 16.39 (01:20) 11.11 (01:20) 1.8 1.8 0 0 0
28-08-2018 32.7 (15:30) 19.9 (00:00) 26.3 11.94 (19:40) 7.5 (17:10) 0.2 0 0 0 0.2
27-08-2018 33.7 (18:40) 18.6 (00:00) 26.2 6.39 (20:50) 3.89 (05:10) 0 0 0 0 0
26-08-2018 28.7 (19:30) 14.8 (00:00) 21.8 7.22 (00:30) 4.17 (00:30) 0 0 0 0 0
25-08-2018 27.6 (17:00) 14.8 (00:00) 21.2 9.17 (13:10) 5.28 (18:40) 0 0 0 0 0
24-08-2018 29.7 (16:10) 18.5 (00:00) 24.1 11.39 (16:40) 6.94 (18:00) 0 0 0 0 0
23-08-2018 33.4 (17:20) 19.7 (00:00) 26.6 6.94 (21:30) 4.17 (22:40) 0 0 0 0 0

Gráficas

Temp. máximas Temp. mínimas Temp. medias Precipitaciones Rachas de viento máximas Velocidades máximas media en intervalos de 10 minutos

Datos horarios

Fecha y hora oficial Temperatura (ºC) Velocidad del viento (km/h) Dirección del viento Racha (km/h) Dirección de racha Precipitación (mm) Presión (hPa) Tendencia (hPa) Humedad (%)
2018-09-21 23:00:00 24.5 9 Oeste 23 Oeste 0 967.5 2.8 37
2018-09-21 22:00:00 25.6 13 Noroeste 26 Noroeste 0 966.5 2.3 34
2018-09-21 21:00:00 27 13 Noroeste 20 Noroeste 0 965.6 1.7 34
2018-09-21 20:00:00 29.1 5 Norte 13 Norte 0 964.7 0.7 27
2018-09-21 19:00:00 30.6 8 Norte 21 Noroeste 0 964.2 0.1 23
2018-09-21 18:00:00 31 14 Norte 26 Norte 0 963.9 -0.7 22
2018-09-21 17:00:00 31.1 14 Norte 25 Norte 0 964 -0.8 24
2018-09-21 16:00:00 31.4 13 Norte 29 Norte 0 964.1 -1.1 24
2018-09-21 15:00:00 30.3 18 Norte 30 Norte 0 964.6 -1 27
2018-09-21 14:00:00 29.8 12 Norte 21 Norte 0 964.8 -0.5 30
2018-09-21 13:00:00 28.5 9 Norte 19 Norte 0 965.2 0.6 32
2018-09-21 12:00:00 27.6 10 Norte 21 Norte 0 965.6 1.4 36
2018-09-21 11:00:00 27 5 Norte 13 Sudoeste 0 965.3 1.5 35
2018-09-21 10:00:00 24.3 11 Sudoeste 15 Sudoeste 0 964.6 1.3 44
2018-09-21 09:00:00 20.4 3 Sudoeste 11 Sudoeste 0 964.2 1 60
2018-09-21 08:00:00 19.6 8 Sudoeste 12 Sudoeste 0 963.8 0.8 63
2018-09-21 07:00:00 19.5 6 Oeste 11 Sudoeste 0 963.3 0.3 65
2018-09-21 06:00:00 20.1 4 Oeste 16 Sudoeste 0 963.2 -0.2 63
2018-09-21 05:00:00 21.3 10 Sudoeste 15 Sudoeste 0 963 -0.6 60
2018-09-21 04:00:00 22.2 10 Sur 17 Sudoeste 0 963 -1 57
2018-09-21 03:00:00 21.7 10 Sudoeste 14 Sudoeste 0 963.4 -0.8 62
2018-09-21 02:00:00 22.4 4 Oeste 19 Sur 0 963.6 -0.4 61
2018-09-21 01:00:00 23 10 Sur 21 Sur 0 964 0 62
2018-09-21 00:00:00 23.5 11 Sur 22 Sur 0 964.2 0.6 62
2018-09-20 23:00:00 24.1 9 Sur 23 Sur 0 964 0.6 60
2018-09-20 22:00:00 24.7 11 Sur 26 Sur 0 964 0.8 58
2018-09-20 21:00:00 25.6 13 Sudeste 23 Sur 0 963.6 0.2 55
2018-09-20 20:00:00 27.7 13 Sur 29 Sudeste 0 963.4 -0.5 47
2018-09-20 19:00:00 31 5 Nordeste 14 Nordeste 0 963.2 -1.3 26
2018-09-20 18:00:00 31.2 7 Norte 16 Nordeste 0 963.4 -1.8 23
2018-09-20 17:00:00 31.4 5 Nordeste 16 Nordeste 0 963.9 -2.1 26
2018-09-20 16:00:00 31.3 4 Nordeste 12 Este 0 964.5 -2.1 27
2018-09-20 15:00:00 30.4 6 Norte 14 Nordeste 0 965.2 -1.8 30
2018-09-20 14:00:00 29.2 8 Nordeste 15 Norte 0 966 -1.3 31
2018-09-20 13:00:00 29 4 Sudoeste 10 Este 0 966.6 -0.5 33
2018-09-20 12:00:00 26.4 3 Norte 9 Sudeste 0 967 -0.1 37
2018-09-20 11:00:00 25.1 4 Sur 12 Sudoeste 0 967.3 0.3 41
2018-09-20 10:00:00 21.8 9 Sur 15 Sudoeste 0 967.1 0.3 51
2018-09-20 09:00:00 18.9 11 Sudoeste 17 Sudoeste 0 967.1 0.4 62
2018-09-20 08:00:00 18 11 Sudoeste 14 Sudoeste 0 967 0.4 66
2018-09-20 07:00:00 18.2 9 Sudoeste 17 Sudoeste 0 966.8 0.1 68
2018-09-20 06:00:00 18.9 12 Sudoeste 20 Sudoeste 0 966.7 -0.3 65
2018-09-20 05:00:00 19.5 14 Sudoeste 23 Sudoeste 0 966.6 -0.6 64
2018-09-20 04:00:00 20.4 12 Sudoeste 20 Sudoeste 0 966.7 -0.7 65
2018-09-20 03:00:00 20.9 9 Sur 19 Sur 0 967 -0.3 63
2018-09-20 02:00:00 21.4 11 Sudoeste 19 Sudoeste 0 967.2 0.1 65
2018-09-20 01:00:00 21.9 12 Sudoeste 19 Sudoeste 0 967.4 0.8 67
2018-09-20 00:00:00 22.3 12 Sudoeste 19 Sudoeste 0 967.3 1.4 62
2018-09-19 23:00:00 23.1 10 Sudoeste 14 Sudoeste 0 967.1 1.3 58
2018-09-19 22:00:00 23.2 7 Sudoeste 9 Sudoeste 0 966.6 1 48
2018-09-19 21:00:00 25 2 Oeste 6 Norte 0 965.9 0.3 43
2018-09-19 20:00:00 27.6 4 Norte 10 Norte 0 965.8 0 34
2018-09-19 19:00:00 28.5 5 Nordeste 14 Norte 0 965.6 -0.9 31
2018-09-19 18:00:00 29.6 6 Norte 17 Norte 0 965.6 -1.3 31
2018-09-19 17:00:00 29.1 10 Norte 20 Norte 0 965.8 -1.6 32
2018-09-19 16:00:00 29.5 5 Este 14 Norte 0 966.5 -1.2 33
2018-09-19 15:00:00 28.6 6 Nordeste 19 Norte 0 966.9 -1 33
2018-09-19 14:00:00 27.6 8 Norte 17 Este 0 967.4 -0.4 36
2018-09-19 13:00:00 26.4 5 Norte 13 Nordeste 0 967.7 0.2 43
2018-09-19 12:00:00 25 4 Norte 10 Sudeste 0 967.9 0.8 55
2018-09-19 11:00:00 24.2 5 Sudeste 9 Sudeste 0 967.8 1.4 60
2018-09-19 10:00:00 21.7 3 Sur 14 Sudoeste 0 967.5 1.4 66
2018-09-19 09:00:00 18.3 8 Sudoeste 15 Sudoeste 0 967.1 1.3 79
2018-09-19 08:00:00 16.9 4 Oeste 13 Sudoeste 0 966.4 0.9 84
2018-09-19 07:00:00 16.8 3 Sudoeste 8 Sudoeste 0 966.1 0.6 85
2018-09-19 06:00:00 17.3 4 Sudoeste 8 Oeste 0 965.8 0.6 85
2018-09-19 05:00:00 17.9 3 Sudoeste 7 Oeste 0 965.5 0.5 86
2018-09-19 04:00:00 18.7 5 Oeste 9 Norte 0 965.5 0.1 82
2018-09-19 03:00:00 20.2 3 Sur 18 Sudoeste 0 965.2 -0.2 73
2018-09-19 02:00:00 20 8 Sudoeste 14 Sudoeste 0 965 0.1 79
2018-09-19 01:00:00 20.6 8 Oeste 10 Oeste 0 965.4 0.9 77
2018-09-19 00:00:00 21.7 2 Noroeste 12 Nordeste 0 965.4 2 68
2018-09-18 23:00:00 22.7 2 Norte 11 Sur 0 964.9 2.5 60
2018-09-18 22:00:00 22.9 8 Sur 20 Sudeste 0 964.5 2.4 60
2018-09-18 21:00:00 23.4 10 Sudeste 27 Sudeste 0 963.4 1.6 58
2018-09-18 20:00:00 24.3 12 Sur 31 Sudeste 0 962.4 0.5 54
2018-09-18 19:00:00 27.5 17 Sur 28 Sur 0 962.1 -0.1 43
2018-09-18 18:00:00 29 5 Norte 14 Norte 0 961.8 -0.8 32
2018-09-18 17:00:00 28.8 4 Noroeste 17 Norte 0 961.9 -1.1 31
2018-09-18 16:00:00 27.5 9 Norte 19 Norte 0 962.2 -1.5 38
2018-09-18 15:00:00 26.3 10 Norte 18 Norte 0 962.6 -1.6 43
2018-09-18 14:00:00 25.8 9 Norte 16 Norte 0 963 -1.3 47
2018-09-18 13:00:00 24.7 10 Norte 16 Norte -- 963.7 -0.5 53
2018-09-18 12:00:00 23.7 9 Norte 15 Norte 0 964.2 0.5 53
2018-09-18 11:00:00 24.7 5 Sudeste 12 Sudoeste 0 964.3 1.2 47
2018-09-18 10:00:00 21.6 6 Sudoeste 15 Sudoeste 0 964.2 1.6 67
2018-09-18 09:00:00 17.7 9 Sudoeste 14 Sudoeste 0 963.7 1.2 78
2018-09-18 08:00:00 17.3 6 Sudoeste 12 Sudoeste 0 963.1 0.1 79
2018-09-18 07:00:00 18.5 5 Oeste 17 Sur 0 962.6 -0.8 77
2018-09-18 06:00:00 19.1 9 Sudeste 14 Este 0 962.5 -0.8 76
2018-09-18 05:00:00 19 5 Sudoeste 11 Sudeste 0 963 -0.1 78
2018-09-18 04:00:00 19.2 7 Sudoeste 12 Sudeste 0 963.4 -0.4 78
2018-09-18 03:00:00 19.9 6 Sudoeste 9 Sudoeste 0 963.3 -0.7 82
2018-09-18 02:00:00 20.5 5 Este 39 Sudeste 0 963.1 -0.7 80
2018-09-18 01:00:00 22.3 18 Sur 36 Sur 0 963.8 -0.5 53
2018-09-18 00:00:00 22.1 12 Sur 27 Sudeste 0 964 0.2 49
2018-09-17 23:00:00 21 5 Sudoeste 21 Sudoeste 0 963.8 1.1 58
2018-09-17 22:00:00 21.4 12 Sudoeste 33 Sudoeste 0 964.3 1.7 60
2018-09-17 21:00:00 24.2 17 Sudoeste 35 Sudoeste 0 963.8 1.4 57
2018-09-17 20:00:00 24.8 9 Sudeste 29 Sur 0 962.7 -0.5 54
2018-09-17 19:00:00 25.7 17 Sudeste 31 Sudeste 0 962.6 -1 52
2018-09-17 18:00:00 25.3 12 Sudeste 30 Sudeste 0.2 962.4 -1.8 54
2018-09-17 17:00:00 26.4 18 Sudeste 36 Sudeste 0 963.2 -1.6 46
2018-09-17 16:00:00 29.5 6 Este 22 Norte 0 963.6 -2 38
2018-09-17 15:00:00 29.2 10 Norte 27 Norte 0 964.2 -2.2 40
2018-09-17 14:00:00 28.2 6 Norte 20 Nordeste 0 964.8 -1.8 41
2018-09-17 13:00:00 26.2 7 Nordeste 15 Nordeste 0 965.6 -1.2 46
2018-09-17 12:00:00 24.8 8 Norte 15 Nordeste 0 966.4 -0.4 50
2018-09-17 11:00:00 24.9 5 Este 13 Este 0 966.6 0.3 48
2018-09-17 10:00:00 22.2 4 Sur 9 Sudoeste 0 966.8 0.4 63
2018-09-17 09:00:00 18.8 5 Sudoeste 12 Sudoeste 0 966.8 0.5 72
2018-09-17 08:00:00 17.7 4 Sudoeste 13 Sudoeste 0 966.3 -0.2 73
2018-09-17 07:00:00 18.7 8 Sur 14 Sur 0 966.4 -0.1 75
2018-09-17 06:00:00 18.7 3 Oeste 11 Sur 0 966.3 0.1 81
2018-09-17 05:00:00 19.7 5 Sur 14 Este 0 966.5 0 80
2018-09-17 04:00:00 20.4 8 Este 29 Sur 0 966.5 -0.5 79
2018-09-17 03:00:00 21.4 12 Sur 35 Sur 0 966.2 -0.8 71
2018-09-17 02:00:00 21.5 16 Sur 30 Sur 0 966.5 -0.4 72
2018-09-17 01:00:00 21.7 14 Sur 30 Sur 0 967 0.5 71
2018-09-17 00:00:00 22.3 11 Sudeste 19 Sudeste 0 967 1.3 68
2018-09-16 23:00:00 23.1 3 Sudoeste 15 Sur 0 966.9 1.4 61
2018-09-16 22:00:00 23.8 5 Sur 14 Sudeste 0 966.5 1 57
2018-09-16 21:00:00 24.1 3 Oeste 5 Norte 0 965.7 0.2 37
2018-09-16 20:00:00 27.8 4 Norte 8 Norte 0 965.5 -0.1 28
2018-09-16 19:00:00 29.4 4 Norte 15 Nordeste 0 965.5 -0.4 24
2018-09-16 18:00:00 29.5 8 Norte 17 Norte 0 965.5 -0.9 23
2018-09-16 17:00:00 30.1 7 Este 30 Norte 0 965.6 -1.4 24
2018-09-16 16:00:00 29.8 6 Este 14 Norte 0 965.9 -1.6 26
2018-09-16 15:00:00 28.6 5 Norte 17 Norte 0 966.4 -1.6 29
2018-09-16 14:00:00 28 5 Nordeste 14 Este 0 967 -1 34
2018-09-16 13:00:00 26.7 5 Nordeste 10 Norte 0 967.5 -0.4 36
2018-09-16 12:00:00 25.7 2 Norte 7 Sudeste 0 968 0 36
2018-09-16 11:00:00 23.9 5 Sudeste 11 Sudeste 0 968 0.6 40
2018-09-16 10:00:00 21.3 7 Sur 12 Sudoeste 0 967.9 0.9 48
2018-09-16 09:00:00 17.8 8 Sudoeste -- -- 0 968 1.1 59
2018-09-16 08:00:00 16.6 6 Sudoeste 14 Sudoeste 0 967.4 0.4 63
2018-09-16 07:00:00 16.8 13 Sudoeste 21 Sudoeste 0 967 -0.2 59
2018-09-16 06:00:00 17.5 9 Sudoeste 17 Sudoeste 0 966.9 -0.6 59
2018-09-16 05:00:00 17.4 10 Sur 17 Sur 0 967 -0.7 64
2018-09-16 04:00:00 16.9 5 Sur 14 Sudoeste 0 967.2 -0.9 62
2018-09-16 03:00:00 17.7 10 Sudoeste 13 Sudoeste 0 967.5 -0.5 62
2018-09-16 02:00:00 18.3 4 Sudoeste 11 Sudeste 0 967.7 0.3 62
2018-09-16 01:00:00 18.9 3 Sudoeste 8 Sudeste 0 968.1 1.2 60
2018-09-16 00:00:00 20.1 4 Sudeste 21 Sudeste 0 968 1.4 55
2018-09-15 23:00:00 21.8 10 Sudeste 23 Sur 0 967.4 0.6 49
2018-09-15 22:00:00 22.5 10 Sur 27 Sur 0 966.9 0.4 46
2018-09-15 21:00:00 22.4 11 Sur 22 Sur 0 966.6 0.1 50
2018-09-15 20:00:00 23.3 11 Sur 33 Sudeste 0 966.8 0 49
2018-09-15 19:00:00 24.4 15 Sudeste 27 Sudeste 0 966.5 -0.4 50
2018-09-15 18:00:00 25.6 12 Sudeste 22 Sudeste 0 966.5 -0.8 46
2018-09-15 17:00:00 25.3 8 Norte 14 Nordeste 0 966.8 -1.3 42
2018-09-15 16:00:00 24.6 6 Nordeste 14 Nordeste 0 966.9 -1.4 43
2018-09-15 15:00:00 24.4 8 Norte 17 Nordeste 0 967.3 -1.3 44
2018-09-15 14:00:00 24.1 8 Norte 17 Norte 0 968.1 -0.6 43
2018-09-15 13:00:00 23.2 11 Norte 19 Norte 0 968.3 -0.3 45
2018-09-15 12:00:00 22.8 8 Norte 15 Norte 0 968.6 0.6 47
2018-09-15 11:00:00 21 7 Norte 15 Norte 0 968.7 0.9 52
2018-09-15 10:00:00 18.9 3 Este 6 Oeste 0 968.6 1.2 65
2018-09-15 09:00:00 17.5 2 Noroeste 6 Sudoeste 0 968 0.8 71
2018-09-15 08:00:00 17.2 2 Oeste 6 Oeste 0 967.8 0.8 70
2018-09-15 07:00:00 17.7 3 Sur 9 Norte 0 967.4 0.4 65
2018-09-15 06:00:00 17.9 2 Sudoeste 9 Sudoeste 0 967.2 0.1 65
2018-09-15 05:00:00 18.3 5 Sudoeste 10 Oeste 0 967 0.1 62
2018-09-15 04:00:00 18.6 4 Sudoeste 14 Sudoeste 0 967 0.6 59
2018-09-15 03:00:00 18.7 6 Oeste 12 Sudoeste 0 967.1 1.1 56
2018-09-15 02:00:00 19.3 2 Sur 10 Sudoeste 0 966.9 1.3 53
2018-09-15 01:00:00 20.5 9 Sur 15 Sudoeste 0 966.4 1.1 48
2018-09-15 00:00:00 21 8 Sur 15 Sudoeste 0 966 1 46
2018-09-14 23:00:00 21.4 8 Sudoeste 15 Sudoeste 0 965.6 0.8 44
2018-09-14 22:00:00 21.6 4 Sudoeste 10 Sur 0 965.3 0.7 45
2018-09-14 21:00:00 23.4 6 Oeste 8 Oeste 0 965 0.3 41
2018-09-14 20:00:00 26.3 5 Noroeste 11 Norte 0 964.8 -0.2 32
2018-09-14 19:00:00 27.9 6 Norte 15 Norte 0 964.6 -0.7 26
2018-09-14 18:00:00 28.1 9 Norte 19 Norte 0 964.7 -1.1 28
2018-09-14 17:00:00 27.6 9 Norte 17 Norte 0 965 -1.6 27
2018-09-14 16:00:00 27 6 Nordeste 17 Norte 0 965.3 -1.8 33
2018-09-14 15:00:00 26.1 7 Nordeste 15 Nordeste 0 965.8 -1.5 37
2018-09-14 14:00:00 25.7 5 Nordeste 17 Este 0 966.6 -0.7 39
2018-09-14 13:00:00 23.7 5 Norte 11 Norte 0 967.1 0.2 46
2018-09-14 12:00:00 21.6 2 Este 8 Nordeste 0 967.3 0.7 53
2018-09-14 11:00:00 20.6 3 Oeste 9 Este 0 967.3 1 56
2018-09-14 10:00:00 19.4 3 Nordeste 8 Sudeste 0 966.9 0.9 59
2018-09-14 09:00:00 16.5 4 Sudoeste 13 Sur 0 966.6 0.8 76
2018-09-14 08:00:00 15.2 9 Sur 17 Sudoeste 0 966.3 0.4 79
2018-09-14 07:00:00 15.9 12 Sudoeste 16 Sudoeste 0 966 -0.1 76
2018-09-14 06:00:00 16.1 5 Sudoeste 10 Sudoeste 0 965.8 -0.5 75
2018-09-14 05:00:00 17.1 7 Sudoeste 12 Sudoeste 0 965.9 -0.4 68
2018-09-14 04:00:00 17.8 4 Sudoeste 14 Sudoeste 0 966.1 -0.2 66
2018-09-14 03:00:00 18.7 6 Sudoeste 14 Oeste 0 966.3 0.1 61
2018-09-14 02:00:00 19.2 9 Sudoeste 16 Sudoeste 0 966.3 0.4 59
2018-09-14 01:00:00 19.5 9 Sudoeste 17 Sudoeste 0 966.3 0.7 59
2018-09-14 00:00:00 20.1 6 Sudoeste 15 Oeste 0 966.2 1.2 56
2018-09-13 23:00:00 21.1 5 Sudoeste 11 Sudoeste 0 965.9 1 52
2018-09-13 22:00:00 21.5 5 Oeste 7 Sudoeste 0 965.6 0.7 49
2018-09-13 21:00:00 23.7 4 Oeste 8 Noroeste 0 965 0 41
2018-09-13 20:00:00 26.5 5 Norte 18 Noroeste 0 964.9 -0.3 33
2018-09-13 19:00:00 27.7 11 Noroeste 23 Noroeste 0 964.9 -0.9 28
2018-09-13 18:00:00 28 14 Noroeste 25 Noroeste 0 965 -1.4 30
2018-09-13 17:00:00 28 13 Norte 22 Noroeste 0 965.2 -1.7 32
2018-09-13 16:00:00 27.5 9 Noroeste 23 Norte 0 965.8 -1.6 35
2018-09-13 15:00:00 26.6 10 Norte 23 Noroeste 0 966.4 -1.4 39
2018-09-13 14:00:00 26.1 9 Noroeste 22 Oeste 0 966.9 -1 42
2018-09-13 13:00:00 25 10 Noroeste 20 Noroeste 0 967.4 -0.2 51
2018-09-13 12:00:00 23.7 12 Oeste 21 Oeste 0 967.8 0.3 56
2018-09-13 11:00:00 22 9 Oeste 19 Oeste 0 967.9 0.9 63
2018-09-13 10:00:00 20.9 8 Oeste 23 Oeste 0 967.6 0.7 69
2018-09-13 09:00:00 19.1 7 Oeste 17 Sudoeste 0 967.5 0.7 77
2018-09-13 08:00:00 18.1 10 Sudoeste 19 Sudoeste 0 967 0.2 80
2018-09-13 07:00:00 18.6 10 Sudoeste 24 Sudoeste 0 966.9 0.4 75
2018-09-13 06:00:00 19.5 12 Sudoeste 23 Oeste 0 966.8 0.4 66
2018-09-13 05:00:00 19.6 7 Oeste 19 Noroeste 0 966.8 0.1 69
2018-09-13 04:00:00 19.7 11 Noroeste 18 Noroeste 0 966.5 -0.7 60
2018-09-13 03:00:00 19.8 5 Sudoeste 17 Sudoeste 0 966.4 -1.1 59
2018-09-13 02:00:00 20.8 10 Sudoeste 16 Sudoeste 0 966.7 -0.8 59
2018-09-13 01:00:00 21.1 10 Sudoeste 17 Sudoeste 0 967.2 -0.2 60
2018-09-13 00:00:00 20.9 10 Sudoeste 15 Sudoeste 0 967.5 0.8 60
2018-09-12 23:00:00 21.7 8 Sudoeste 13 Sudoeste 0 967.5 1.1 56
2018-09-12 22:00:00 22 5 Sudoeste 8 Sudoeste 0 967.4 0.9 53
2018-09-12 21:00:00 23.7 4 Noroeste 18 Norte 0 966.7 0.2 49
2018-09-12 20:00:00 25.6 12 Norte 19 Norte 0 966.4 -0.2 46
2018-09-12 19:00:00 27 10 Noroeste 26 Noroeste 0 966.5 -0.5 42
2018-09-12 18:00:00 27.7 16 Noroeste 28 Norte 0 966.5 -1.5 38
2018-09-12 17:00:00 28.2 16 Norte 32 Noroeste 0 966.6 -2.3 34
2018-09-12 16:00:00 28 11 Norte 21 Noroeste 0 967 -2.6 37
2018-09-12 15:00:00 26.9 12 Norte 20 Norte 0 968 -1.8 40
2018-09-12 14:00:00 25.7 10 Norte 22 Norte 0 968.9 -0.8 46
2018-09-12 13:00:00 24.9 11 Noroeste 20 Norte 0 969.6 0.5 49
2018-09-12 12:00:00 23.9 12 Noroeste 21 Noroeste 0 969.8 0.8 53
2018-09-12 11:00:00 23.5 4 Oeste 10 Noroeste 0 969.7 0.8 52
2018-09-12 10:00:00 22.4 5 Sur 9 Sudeste 0 969.1 0.5 57
2018-09-12 09:00:00 19.9 3 Nordeste 12 Oeste 0 969 0.5 69
2018-09-12 08:00:00 18.7 5 Sudoeste 13 Sudoeste 0 968.9 0.1 73
2018-09-12 07:00:00 19.7 4 Sur 20 Sudeste 0 968.6 -0.4 66
2018-09-12 06:00:00 20.3 8 Sur 16 Sudeste 0 968.5 -1 62
2018-09-12 05:00:00 20.6 6 Norte 18 Sudeste 0 968.8 -0.9 63
2018-09-12 04:00:00 20.3 3 Nordeste 16 Sudeste 0 969 -1 64
2018-09-12 03:00:00 21.2 9 Sur 21 Sudeste 0 969.5 -0.5 59
2018-09-12 02:00:00 20.7 10 Sudeste 18 Sudeste 0 969.7 0.1 63
2018-09-12 01:00:00 21.2 3 Norte 17 Sur 0 970 0.4 61
2018-09-12 00:00:00 21.8 6 Sur 18 Sudeste 0 970 1.2 60
2018-09-11 23:00:00 22.3 11 Sudeste 29 Sudeste 0 969.6 0.7 59
2018-09-11 22:00:00 22.9 9 Sur 18 Sur 0 969.6 -- 60
2018-09-11 21:00:00 23.8 3 Noroeste 16 Sur 0 968.8 0.5 54
2018-09-11 20:00:00 24.6 12 Sudoeste 21 Sudoeste -- 968.9 0 50
2018-09-11 19:00:00 -- -- -- -- -- -- -- -- --
2018-09-11 18:00:00 26.9 6 Nordeste 18 Este 0 968.3 -1.9 41
2018-09-11 17:00:00 27.4 9 Norte 22 Nordeste 0 968.9 -2 39
2018-09-11 16:00:00 26.2 10 Nordeste 20 Nordeste 0 969.6 -2.2 43
2018-09-11 15:00:00 26.9 7 Nordeste 19 Nordeste 0 970.2 -1.6 42
2018-09-11 14:00:00 24.9 8 Norte 21 Nordeste 0 970.9 -0.8 49
2018-09-11 13:00:00 23.2 5 Nordeste 13 Norte 0 971.8 0.3 55
2018-09-11 12:00:00 23.7 5 Nordeste 13 Norte 0 971.8 0.7 54
2018-09-11 11:00:00 21.8 6 Norte 12 Noroeste 0 971.7 0.9 62
2018-09-11 10:00:00 21.2 6 Noroeste 12 Sudoeste 0 971.5 1 56
2018-09-11 09:00:00 18.5 7 Sudoeste 14 Sudoeste 0 971.1 0.6 66
2018-09-11 08:00:00 17.6 11 Sudoeste 15 Sudoeste 0 970.8 0.5 69
2018-09-11 07:00:00 17.7 11 Sudoeste 15 Sudoeste 0 970.5 0.3 71
2018-09-11 06:00:00 18 8 Sudoeste 11 Sudoeste 0 970.5 0.5 70
2018-09-11 05:00:00 18.8 4 Oeste 14 Sudoeste 0 970.3 0 67
2018-09-11 04:00:00 19.6 10 Sudoeste 15 Sudoeste 0 970.2 -0.5 62
2018-09-11 03:00:00 20.3 8 Sudoeste 14 Sudoeste 0 970 -0.6 59
2018-09-11 02:00:00 20 7 Sudoeste 12 Sudoeste 0 970.3 -0.3 64
2018-09-11 01:00:00 20.3 9 Sudoeste 14 Sur 0 970.7 0.3 70
2018-09-11 00:00:00 20.6 6 Sur 15 Sur 0 970.6 0.9 71
2018-09-10 23:00:00 21.1 7 Sur 17 Sur 0 970.6 1.2 68
2018-09-10 22:00:00 21 7 Sur 15 Sur 0 970.4 1.4 68
2018-09-10 21:00:00 20.9 6 Sur 24 Sudeste 0.2 969.7 0.8 69
2018-09-10 20:00:00 24.5 10 Sudeste 22 Sudeste 0 969.4 0 47
2018-09-10 19:00:00 27.1 6 Este 20 Sudeste 0 969 -0.7 39
2018-09-10 18:00:00 26.8 5 Nordeste 16 Nordeste 0 968.9 -1.2 38
2018-09-10 17:00:00 26.8 5 Este 14 Este 0 969.4 -1.1 43
2018-09-10 16:00:00 25.7 6 Norte 16 Noroeste 0 969.7 -0.9 42
2018-09-10 15:00:00 25.1 10 Norte 17 Noroeste 0 970.1 -0.8 45
2018-09-10 14:00:00 24.2 11 Norte 22 Norte 0 970.5 -0.5 59
2018-09-10 13:00:00 24 7 Noroeste 13 Norte 0 970.6 0.1 58
2018-09-10 12:00:00 23 5 Oeste 13 Noroeste 0 970.9 1.1 64
2018-09-10 11:00:00 20.7 5 Noroeste 14 Noroeste 0 971 1.7 71
2018-09-10 10:00:00 19.5 9 Noroeste 14 Noroeste 0 970.5 1.5 77
2018-09-10 09:00:00 18.9 3 Oeste 9 Oeste 0 969.8 1.7 83
2018-09-10 08:00:00 18.7 2 Sudoeste 7 Oeste 0 969.3 1.2 82
2018-09-10 07:00:00 18.7 0 Calma 6 Oeste 0 969 0.6 81
2018-09-10 06:00:00 18.7 3 Oeste 6 Sudoeste 0 968.1 0.1 81
2018-09-10 05:00:00 19.3 3 Oeste 9 Oeste 0 968.1 -0.3 78
2018-09-10 04:00:00 19.4 4 Sudoeste 10 Oeste 0 968.4 0.5 73
2018-09-10 03:00:00 19 6 Sudoeste 9 Oeste 0 968 0.4 71
2018-09-10 02:00:00 19.7 3 Sudoeste 17 Noroeste 0 968.4 0.6 75
2018-09-10 01:00:00 20.9 4 Sudeste 13 Sudoeste 0 967.9 0.8 68
2018-09-10 00:00:00 21.3 4 Sudeste 9 Oeste 0 967.6 1.4 64
2018-09-09 23:00:00 21.9 8 Oeste 15 Sudeste 0 967.8 2.6 57
2018-09-09 22:00:00 22.2 7 Sudeste 23 Sudeste 0 967.1 1.8 58
2018-09-09 21:00:00 22.8 9 Este 22 Sur 0 966.2 1.1 63
2018-09-09 20:00:00 23.5 15 Sur 31 Sur 0 965.2 0.1 57
2018-09-09 19:00:00 23.3 13 Sur 24 Sur 0 965.3 -0.1 50
2018-09-09 18:00:00 24.5 10 Sur 31 Sudeste 0 965.1 -0.9 54
2018-09-09 17:00:00 27.8 5 Este 17 Norte 0 965.1 -1.4 44
2018-09-09 16:00:00 26.7 8 Norte 19 Norte 0 965.4 -1.6 45
2018-09-09 15:00:00 26.5 9 Norte 17 Norte 0 966 -1.4 45
2018-09-09 14:00:00 25.6 8 Norte 18 Noroeste 0 966.5 -0.7 54
2018-09-09 13:00:00 24.7 6 Nordeste 15 Norte 0 967 0 63
2018-09-09 12:00:00 24.5 6 Nordeste 13 Nordeste 0 967.4 0.4 62
2018-09-09 11:00:00 22.9 5 Noroeste 12 Sudoeste 0 967.2 0.7 67
2018-09-09 10:00:00 20.8 4 Sur 8 Sudoeste 0 967 0.9 78
2018-09-09 09:00:00 19 5 Sudoeste 8 Sudoeste 0 967 1.3 84
2018-09-09 08:00:00 18.2 2 Oeste 13 Noroeste 0 966.5 0.9 86
2018-09-09 07:00:00 18.5 6 Oeste 9 Noroeste 0 966.1 0.6 85
2018-09-09 06:00:00 19.6 0 Calma 12 Sudoeste 0 965.7 0.2 78
2018-09-09 05:00:00 20 4 Sudoeste 14 Oeste 0 965.6 0.7 84
2018-09-09 04:00:00 20.6 10 Oeste 20 Oeste 0 965.5 0.6 82
2018-09-09 03:00:00 22 14 Oeste 33 Sudeste 0 965.5 0.6 60
2018-09-09 02:00:00 22.1 18 Sur 35 Sudeste 0 964.9 0.4 60
2018-09-09 01:00:00 22.4 18 Sur 40 Sur 0 964.9 0.5 59
2018-09-09 00:00:00 22.5 19 Sur 35 Sudeste 0 964.9 1.4 61
2018-09-08 23:00:00 23.3 18 Sur 31 Sur 0 964.5 1.2 57
2018-09-08 22:00:00 23.7 16 Sur 32 Sudeste 0 964.4 0.9 54
2018-09-08 21:00:00 24.5 19 Sur 32 Sudeste 0 963.5 0 46
2018-09-08 20:00:00 25.3 14 Sudeste 30 Sudeste 0 963.3 -0.2 43
2018-09-08 19:00:00 26.3 19 Sudeste 33 Sudeste 0 963.5 -0.5 38
2018-09-08 18:00:00 27.2 19 Sudeste 36 Sudeste 0 963.5 -0.7 38
2018-09-08 17:00:00 27.5 21 Sudeste 40 Sudeste 0 963.5 -1.4 39
2018-09-08 16:00:00 27.1 20 Sudeste 40 Sudeste 0 964 -1.4 43
2018-09-08 15:00:00 26.5 20 Sudeste 40 Sudeste 0 964.2 -1.2 42
2018-09-08 14:00:00 27.5 17 Sudeste 32 Sudeste 0 964.9 -0.4 39
2018-09-08 13:00:00 27.3 16 Sudeste 27 Sudeste 0 965.4 0 41
2018-09-08 12:00:00 25.1 8 Sudeste 24 Este 0 965.4 0.2 55
2018-09-08 11:00:00 23.6 8 Sudeste 18 Sudeste 0 965.3 1.1 61
2018-09-08 10:00:00 21.1 7 Sudeste 25 Sudeste 0 965.4 0.9 67
2018-09-08 09:00:00 17.5 6 Sudoeste 18 Sudoeste 0 965.2 0.8 80
2018-09-08 08:00:00 16.5 10 Sur 16 Sur 0 964.2 -0.2 85
2018-09-08 07:00:00 16.4 8 Sudoeste 13 Sudoeste 0 964.5 0 85
2018-09-08 06:00:00 16.8 4 Sudoeste 10 Sudoeste 0 964.4 0.1 84
2018-09-08 05:00:00 17.7 5 Sudoeste 13 Oeste 0 964.4 0.1 82
2018-09-08 04:00:00 19 9 Oeste 14 Oeste 0 964.5 0.3 76
2018-09-08 03:00:00 19.4 4 Oeste 12 Sur 0 964.3 0.3 72
2018-09-08 02:00:00 20.3 6 Sudoeste 11 Sudeste 0 964.3 0.6 68
2018-09-08 01:00:00 20.7 6 Sur 16 Sur 0 964.2 0.6 66
2018-09-08 00:00:00 21.7 9 Sur 25 Sur 0 964 1 61
2018-09-07 23:00:00 22 12 Sudeste 20 Sudeste 0 963.7 1.1 60
2018-09-07 22:00:00 22.3 5 Sur 12 Sudeste 0 963.6 1.4 59
2018-09-07 21:00:00 22.6 4 Sur 9 Sur 0 963 0.9 54
2018-09-07 20:00:00 23.4 3 Este 6 Nordeste 0 962.6 0.2 47
2018-09-07 19:00:00 24.4 5 Norte 12 Norte 0 962.2 -0.5 43
2018-09-07 18:00:00 24.4 9 Norte 16 Norte 0 962.1 -1.5 42
2018-09-07 17:00:00 24.4 8 Norte 18 Nordeste 0 962.4 -1.6 43
2018-09-07 16:00:00 24.6 10 Norte 19 Nordeste 0 962.7 -1.7 42
2018-09-07 15:00:00 23.8 5 Nordeste 14 Este 0 963.6 -1.3 46
2018-09-07 14:00:00 22.9 7 Noroeste 15 Norte 0 964 -0.9 49
2018-09-07 13:00:00 22.1 6 Nordeste 16 Norte 0 964.4 -0.2 50
2018-09-07 12:00:00 21.4 5 Norte 17 Noroeste 0 964.9 0.7 49
2018-09-07 11:00:00 20.4 7 Oeste 20 Oeste 0 964.9 0.8 54
2018-09-07 10:00:00 19.1 10 Oeste 16 Oeste 0 964.6 0.9 59
2018-09-07 09:00:00 16.7 8 Sudoeste 16 Sudoeste 0 964.2 0.6 76
2018-09-07 08:00:00 15.3 6 Sudoeste 16 Oeste 0 964.1 0.5 80
2018-09-07 07:00:00 15.9 12 Sudoeste 16 Sudoeste 0 963.7 0.4 76
2018-09-07 06:00:00 15.9 7 Oeste 13 Sudoeste 0 963.6 0.4 75
2018-09-07 05:00:00 16.4 8 Sudoeste 13 Sudoeste 0 963.6 0.3 70
2018-09-07 04:00:00 16.8 6 Sudoeste 20 Oeste 0 963.3 -0.1 68
2018-09-07 03:00:00 17.5 10 Oeste 32 Sudoeste 0 963.2 0.3 65
2018-09-07 02:00:00 18 14 Sudoeste 24 Oeste 0 963.3 0.6 62
2018-09-07 01:00:00 18.5 11 Oeste 20 Sudoeste 0 963.4 1.4 61
2018-09-07 00:00:00 19.1 10 Oeste 16 Oeste 0 962.9 1.8 60
2018-09-06 23:00:00 19.7 9 Oeste 13 Oeste 0 962.7 1.9 61
2018-09-06 22:00:00 20.5 8 Oeste 18 Oeste 0 962 1.4 57
2018-09-06 21:00:00 21.8 10 Noroeste 19 Noroeste 0 961.1 0.5 53
2018-09-06 20:00:00 23.7 4 Noroeste 10 Noroeste 0 960.8 0 49
2018-09-06 19:00:00 23.2 2 Sur 6 Sudeste 0 960.6 -0.4 60
2018-09-06 18:00:00 23.7 2 Este 12 Sudeste 0 960.6 -1.3 57
2018-09-06 17:00:00 23.7 3 Sudoeste 12 Sudoeste 0 960.8 -1.3 54
2018-09-06 16:00:00 23.8 7 Sudoeste 14 Sudeste 0 961 -1.3 54
2018-09-06 15:00:00 23.2 4 Sudeste 10 Noroeste 0 961.9 -0.4 59
2018-09-06 14:00:00 22.1 5 Noroeste 13 Noroeste 0 962.1 -0.1 63
2018-09-06 13:00:00 20.7 6 Oeste 15 Norte 0 962.3 0.2 72
2018-09-06 12:00:00 20.4 8 Norte 19 Noroeste 0 962.3 0.3 68
2018-09-06 11:00:00 20.1 6 Noroeste 13 Noroeste 0 962.2 0.6 71
2018-09-06 10:00:00 19.1 6 Oeste 9 Oeste 0 962.1 0.9 78
2018-09-06 09:00:00 18.4 5 Oeste 9 Oeste 0 962 1 83
2018-09-06 08:00:00 18 3 Oeste 9 Sudoeste 0 961.6 0.5 85
2018-09-06 07:00:00 17.8 4 Oeste 15 Oeste 0 961.2 0.3 84
2018-09-06 06:00:00 17.9 5 Sudoeste 8 Sudoeste 0 961 -0.4 88
2018-09-06 05:00:00 17.8 3 Sur 8 Oeste 0 961.1 -0.1 86
2018-09-06 04:00:00 18.1 4 Oeste 8 Oeste 0 960.9 -0.5 85
2018-09-06 03:00:00 18.2 5 Nordeste 11 Sudoeste 0 961.4 -0.2 89
2018-09-06 02:00:00 18.6 6 Oeste 16 Oeste 0 961.2 0.5 86
2018-09-06 01:00:00 19 9 Oeste 21 Noroeste 0 961.4 2.3 87
2018-09-06 00:00:00 19.1 15 Noroeste 27 Noroeste 0 961.6 2.7 87
2018-09-05 23:00:00 21 10 Oeste 47 Sur 0 960.7 1.7 72
2018-09-05 22:00:00 20.9 21 Sur 46 Sur 0 959.1 -0.3 72
2018-09-05 21:00:00 19.9 14 Sur 34 Sudeste 0 958.9 -1.5 88
2018-09-05 20:00:00 18.7 16 Sudeste 29 Sudeste 0 959 -1.2 97
2018-09-05 19:00:00 18.9 12 Sudeste 25 Sudeste 0.2 959.4 -0.5 99
2018-09-05 18:00:00 18.4 6 Sur 48 Norte 16.6 960.4 0.1 99
2018-09-05 17:00:00 22.9 14 Sudoeste 30 Oeste 0.2 960.2 0 75
2018-09-05 16:00:00 23.8 3 Oeste 14 Norte 1.2 959.9 -1.5 82
2018-09-05 15:00:00 23 4 Nordeste 19 Norte 2.4 960.3 -1.6 86
2018-09-05 14:00:00 24.6 14 Norte 23 Norte 0 960.2 -2 69
2018-09-05 13:00:00 24.6 9 Norte 19 Norte 0 961.4 -0.5 68
2018-09-05 12:00:00 23 7 Nordeste 14 Norte 0 961.9 0.1 74
2018-09-05 11:00:00 22.1 9 Norte 15 Norte 0 962.2 0.6 78
2018-09-05 10:00:00 20.8 5 Norte 8 Oeste 0 961.9 0.4 81
2018-09-05 09:00:00 18.3 4 Oeste 13 Sudoeste 0 961.8 0.5 92
2018-09-05 08:00:00 17.1 4 Sudoeste 10 Sudoeste 0 961.6 0.2 93
2018-09-05 07:00:00 17.7 3 Noroeste 6 Nordeste 0 961.5 0.1 92
2018-09-05 06:00:00 18.6 2 Oeste 9 Sur 0 961.3 0.4 90
2018-09-05 05:00:00 19.3 4 Sur 14 Oeste 2.4 961.4 1 87
2018-09-05 04:00:00 20.6 9 Oeste 20 Oeste 0 961.4 1 72
2018-09-05 03:00:00 21.6 10 Oeste 19 Sur 0 960.9 0.6 74
2018-09-05 02:00:00 22.3 5 Sur 15 Sur 0 960.4 0.9 69
2018-09-05 01:00:00 22.6 3 Sur 17 Sudeste 0 960.4 1.1 67
2018-09-05 00:00:00 23.3 7 Norte 35 Sur 0 960.3 1.3 64
2018-09-04 23:00:00 24.2 18 Sur 48 Sur 0 959.5 0.6 61
2018-09-04 22:00:00 24.5 13 Sur 26 Sudeste 0 959.3 0.9 62
2018-09-04 21:00:00 25.8 8 Sur 19 Sudoeste 0 959 0.9 53
2018-09-04 20:00:00 26.4 5 Oeste 17 Sur 0 958.9 0.2 55
2018-09-04 19:00:00 27.6 8 Sudeste 13 Norte 0 958.4 -0.5 41
2018-09-04 18:00:00 28.7 9 Norte 17 Norte 0 958.1 -1.4 33
2018-09-04 17:00:00 28.3 6 Noroeste 19 Norte 0 958.7 -1.3 34
2018-09-04 16:00:00 28.8 8 Norte 21 Norte 0 958.9 -1.6 32
2018-09-04 15:00:00 27.5 10 Norte 19 Norte 0 959.5 -1.4 34
2018-09-04 14:00:00 26.4 6 Nordeste 17 Este 0 960 -0.8 39
2018-09-04 13:00:00 24.4 5 Norte 15 Norte 0 960.5 -0.1 42
2018-09-04 12:00:00 22.7 6 Norte 15 Norte 0 960.9 0.4 45
2018-09-04 11:00:00 21.4 10 Norte 17 Norte 0 960.8 0.5 56
2018-09-04 10:00:00 21.3 5 Sudoeste 12 Sudoeste 0 960.6 0.4 53
2018-09-04 09:00:00 18.4 8 Sudoeste 17 Sudoeste 0 960.5 0.2 64
2018-09-04 08:00:00 16.9 4 Sur 17 Sudoeste 0 960.3 0 69
2018-09-04 07:00:00 17.5 12 Sudoeste 15 Sudoeste 0 960.2 0.1 67
2018-09-04 06:00:00 17.5 6 Sur 11 Sudoeste 0 960.3 0 70
2018-09-04 05:00:00 17.8 6 Sudoeste 12 Oeste 0 960.3 0.5 78
2018-09-04 04:00:00 17.7 3 Oeste 13 Sudoeste 0 960.1 1 67
2018-09-04 03:00:00 18.7 4 Oeste 8 Sudoeste 0 960.3 1.5 65
2018-09-04 02:00:00 21.3 7 Norte 23 Norte 0 959.8 0 50
2018-09-04 01:00:00 22.3 8 Sudoeste 27 Sur 0 959.1 -0.2 42
2018-09-04 00:00:00 22.7 6 Sur 18 Sudoeste 0 958.8 -0.1 41
2018-09-03 23:00:00 22.8 6 Sudeste 17 Sur 0 959.8 2.4 43
2018-09-03 22:00:00 22.7 10 Sudoeste 41 Sudeste 0.2 959.3 2 50
2018-09-03 21:00:00 23.3 19 Sudeste 52 Sudoeste 0.6 958.9 2.1 45
2018-09-03 20:00:00 27.2 26 Sudeste 50 Sudeste 0 957.4 -1.2 52
2018-09-03 19:00:00 29.4 14 Sudeste 26 Sudeste 0 957.3 -1.3 39
2018-09-03 18:00:00 30 6 Este 33 Sudeste 0 956.8 -2.2 39
2018-09-03 17:00:00 29.9 17 Sudeste 33 Sudeste 0 958.6 -1.2 35
2018-09-03 16:00:00 28.8 13 Sudeste 27 Sur 0 958.6 -2.5 47
2018-09-03 15:00:00 29 12 Sur 26 Sur 0 959 -2.1 41
2018-09-03 14:00:00 25 13 Sudeste 22 Sudeste 0 959.8 -0.4 57
2018-09-03 13:00:00 24.9 13 Noroeste 33 Noroeste 0.2 961.1 0.1 53
2018-09-03 12:00:00 29 5 Sudoeste 22 Sur 0 961.1 -1.4 35
2018-09-03 11:00:00 25.4 10 Sur 21 Sudeste 0 960.2 -0.6 53
2018-09-03 10:00:00 19.9 7 Sudoeste 24 Este 0.6 961 1 87
2018-09-03 09:00:00 21.2 9 Oeste 19 Oeste 0 962.5 2.6 77
2018-09-03 08:00:00 19.6 9 Noroeste 26 Sudeste 0 960.8 0.8 79
2018-09-03 07:00:00 21 5 Sudoeste 26 Oeste 0 960 0 55
2018-09-03 06:00:00 21.2 9 Sudoeste 14 Sudoeste 0 959.9 -0.3 66
2018-09-03 05:00:00 23.3 5 Oeste 15 Sur 0 960 -0.6 61
2018-09-03 04:00:00 23.5 10 Sur 15 Sur 0 960 -0.9 61
2018-09-03 03:00:00 23.1 8 Sudoeste 15 Sudoeste 0 960.2 -0.9 60
2018-09-03 02:00:00 23.9 7 Sudoeste 17 Sudoeste 0 960.6 -0.4 58
2018-09-03 01:00:00 24 12 Sudoeste 16 Sudoeste 0 960.9 0.2 53
2018-09-03 00:00:00 23.9 8 Sudoeste 13 Sudoeste 0 961.1 0.7 41
2018-09-02 23:00:00 24.4 5 Oeste 14 Sudoeste 0 961 0.9 39
2018-09-02 22:00:00 25.3 3 Oeste 8 Oeste 0 960.7 0.1 36
2018-09-02 21:00:00 27.6 3 Sudoeste 5 Sudoeste 0 960.4 -0.4 32
2018-09-02 20:00:00 30 2 Sudoeste 7 Nordeste 0 960.1 -0.9 29
2018-09-02 19:00:00 30.1 4 Este 13 Norte 0 960.6 -0.8 28
2018-09-02 18:00:00 30.4 6 Norte 19 Noroeste 0 960.8 -1.3 27
2018-09-02 17:00:00 30.7 9 Norte 21 Nordeste 0 961 -1.8 26
2018-09-02 16:00:00 30.5 10 Norte 22 Norte 0 961.4 -2.1 25
2018-09-02 15:00:00 29.7 11 Norte 21 Norte 0 962.1 -2 26
2018-09-02 14:00:00 28.9 8 Nordeste 19 Norte 0 962.8 -1.7 28
2018-09-02 13:00:00 28.2 5 Norte 12 Norte 0 963.5 -1.2 28
2018-09-02 12:00:00 25.8 6 Norte 14 Nordeste 0 964.1 -0.5 35
2018-09-02 11:00:00 24 4 Norte 9 Norte 0 964.5 0.3 41
2018-09-02 10:00:00 21.5 3 Norte 9 Nordeste 0 964.7 0.6 45
2018-09-02 09:00:00 19.4 4 Noroeste 11 Sudoeste 0 964.6 0.5 56
2018-09-02 08:00:00 17.3 3 Oeste 14 Oeste 0 964.2 -0.1 61
2018-09-02 07:00:00 17.9 10 Oeste 17 Sudoeste 0 964.1 -0.3 57
2018-09-02 06:00:00 18 8 Oeste 10 Sudoeste 0 964.1 -0.5 60
2018-09-02 05:00:00 19.2 3 Oeste 12 Sudoeste 0 964.3 -0.2 59
2018-09-02 04:00:00 20.3 3 Oeste 12 Sudoeste 0 964.4 0.1 60
2018-09-02 03:00:00 20.9 8 Sudoeste 18 Sur 0 964.6 0.2 50
2018-09-02 02:00:00 22 13 Sudoeste 17 Sudoeste 0 964.5 0.3 48
2018-09-02 01:00:00 22.8 8 Sudoeste 17 Sudoeste 0 964.3 0.4 51
2018-09-02 00:00:00 23.2 11 Sudoeste 17 Sudoeste 0 964.4 1 41
2018-09-01 23:00:00 23.7 9 Sudoeste 13 Sudoeste 0 964.2 0.9 37
2018-09-01 22:00:00 24.8 2 Sudoeste 6 Sudoeste 0 963.9 0.5 33
2018-09-01 21:00:00 26.7 3 Sudeste 9 Nordeste 0 963.4 -0.2 31
2018-09-01 20:00:00 29.4 5 Nordeste 17 Nordeste 0 963.3 -0.5 26
2018-09-01 19:00:00 29.8 10 Norte 21 Norte 0 963.4 -1.2 25
2018-09-01 18:00:00 30 11 Norte 22 Noroeste 0 963.6 -1.7 25
2018-09-01 17:00:00 29.9 10 Norte 23 Noroeste 0 963.8 -2 26
2018-09-01 16:00:00 29.5 11 Norte 26 Norte 0 964.6 -1.7 28
2018-09-01 15:00:00 27.9 11 Norte 24 Norte 0 965.3 -1.5 33
2018-09-01 14:00:00 27.3 6 Norte 23 Norte 0 965.8 -1.2 35
2018-09-01 13:00:00 26.4 9 Norte 19 Noroeste 0 966.3 -0.6 38
2018-09-01 12:00:00 24.9 10 Norte 23 Oeste 0 966.8 0.1 41
2018-09-01 11:00:00 23.8 6 Sudoeste 19 Oeste 0 967 0.4 46
2018-09-01 10:00:00 22.1 7 Oeste 18 Sudoeste 0 966.9 0.5 52
2018-09-01 09:00:00 19.3 10 Sudoeste 17 Sudoeste 0 966.7 0.4 63
2018-09-01 08:00:00 17.6 4 Sudoeste 13 Sudoeste 0 966.6 -0.1 68
2018-09-01 07:00:00 18.2 8 Oeste 13 Sudoeste 0 966.4 -0.2 66
2018-09-01 06:00:00 18.6 8 Sudoeste 16 Sudoeste 0 966.3 -0.3 63
2018-09-01 05:00:00 18.8 7 Sudoeste 12 Oeste 0 966.7 0.1 62
2018-09-01 04:00:00 19.8 8 Sudoeste 15 Sudoeste 0 966.6 0.2 58
2018-09-01 03:00:00 20.5 9 Sudoeste 19 Sudoeste 0 966.6 0.5 56
2018-09-01 02:00:00 21.3 13 Sudoeste 25 Sudoeste 0 966.6 0.9 52
2018-09-01 01:00:00 22.2 9 Oeste 23 Oeste 0 966.4 1.5 48
2018-09-01 00:00:00 23.1 9 Oeste 20 Oeste 0 966.1 1.9 44
2018-08-31 23:00:00 23.8 10 Noroeste 18 Noroeste 0 965.7 1.7 41
2018-08-31 22:00:00 24 4 Sudoeste 8 Sudoeste 0 964.9 0.8 34
2018-08-31 21:00:00 26.6 3 Noroeste 15 Norte 0 964.2 0 29
2018-08-31 20:00:00 28.7 8 Noroeste 15 Noroeste 0 964 -0.6 24
2018-08-31 19:00:00 29.1 9 Norte 16 Noroeste 0 964.1 -1.1 28
2018-08-31 18:00:00 29.1 10 Norte 19 Norte 0 964.2 -1.4 29
2018-08-31 17:00:00 29.3 5 Oeste 20 Noroeste 0 964.6 -1.3 30
2018-08-31 16:00:00 28.1 5 Este 22 Norte 0 965.2 -1.3 34
2018-08-31 15:00:00 26.8 8 Norte 21 Norte 0 965.6 -1 37
2018-08-31 14:00:00 25.8 8 Noroeste 22 Norte 0 965.9 -0.6 39
2018-08-31 13:00:00 24.7 10 Norte 19 Norte 0 966.5 0.2 41
2018-08-31 12:00:00 23.8 9 Nordeste 18 Nordeste 0 966.6 0.3 44
2018-08-31 11:00:00 23.2 4 Nordeste 10 Norte 0 966.5 0.5 46
2018-08-31 10:00:00 21.8 5 Este 10 Sudeste 0 966.3 0.6 52
2018-08-31 09:00:00 19.6 2 Norte 8 Oeste 0 966.3 0.5 58
2018-08-31 08:00:00 18.9 4 Oeste 9 Oeste 0 966 0.1 59
2018-08-31 07:00:00 19.4 6 Oeste 12 Oeste 0 965.7 -0.2 57
2018-08-31 06:00:00 20.4 8 Oeste 11 Oeste 0 965.8 -0.1 54
2018-08-31 05:00:00 20.3 6 Oeste 12 Sudoeste 0 965.9 -0.1 56
2018-08-31 04:00:00 20.9 8 Sudoeste 20 Sudoeste 0 965.9 -0.1 54
2018-08-31 03:00:00 21.6 9 Oeste 18 Oeste 0 965.9 0 53
2018-08-31 02:00:00 22.4 11 Oeste 18 Oeste 0 966 0.3 52
2018-08-31 01:00:00 23.2 10 Noroeste 22 Noroeste 0 966 1 51
2018-08-31 00:00:00 23.6 4 Sudoeste 9 Oeste 0 965.9 1.5 53
2018-08-30 23:00:00 24.2 4 Oeste 5 Sudoeste 0 965.7 1.6 60
2018-08-30 22:00:00 25.3 3 Norte 7 Este 0 965 0.7 56
2018-08-30 21:00:00 26.2 7 Sudeste 13 Sudeste 0 964.4 0.1 53
2018-08-30 20:00:00 28.1 5 Norte 16 Norte 0 964.1 -0.5 37
2018-08-30 19:00:00 29.1 9 Norte 21 Norte 0 964.3 -0.9 34
2018-08-30 18:00:00 29.5 12 Norte 22 Norte 0 964.3 -1.5 34
2018-08-30 17:00:00 29.3 8 Norte 24 Norte 0 964.6 -1.8 33
2018-08-30 16:00:00 28.5 6 Norte 22 Norte 0 965.2 -1.8 35
2018-08-30 15:00:00 27.4 11 Norte 22 Norte 0 965.8 -1.6 38
2018-08-30 14:00:00 26.2 8 Norte 21 Norte 0 966.4 -1.3 41
2018-08-30 13:00:00 24.7 12 Norte 24 Nordeste 0 967 -0.8 44
2018-08-30 12:00:00 24.4 7 Norte 15 Noroeste 0 967.4 -0.2 45
2018-08-30 11:00:00 22.9 3 Nordeste 9 Sudoeste 0 967.7 0.5 50
2018-08-30 10:00:00 21.5 4 Sudeste 8 Oeste 0 967.8 0.8 57
2018-08-30 09:00:00 18.9 4 Oeste 9 Sudoeste 0 967.6 0.6 69
2018-08-30 08:00:00 17.7 6 Sudoeste 12 Oeste 0 967.2 0.1 75
2018-08-30 07:00:00 17.9 5 Oeste 12 Oeste 0 967 -0.1 74
2018-08-30 06:00:00 18.7 8 Oeste 17 Oeste 0 967 0 71
2018-08-30 05:00:00 18.9 4 Sudoeste 16 Oeste 0 967.1 0 71
2018-08-30 04:00:00 19.7 9 Oeste 21 Oeste 0 967.1 0.1 69
2018-08-30 03:00:00 20.3 10 Oeste 16 Oeste 0 967 0.3 66
2018-08-30 02:00:00 21 6 Oeste 13 Noroeste 0 967.1 1.2 60
2018-08-30 01:00:00 22.8 9 Noroeste 15 Noroeste 0 967 1.9 52
2018-08-30 00:00:00 23.4 5 Sudoeste 15 Oeste 0 966.7 2.6 50
2018-08-29 23:00:00 24.8 9 Noroeste 23 Noroeste 0 965.9 2.1 47
2018-08-29 22:00:00 25.4 4 Sudoeste 11 Noroeste 0 965.1 1.7 46
2018-08-29 21:00:00 27.3 7 Noroeste 17 Norte 0 964.1 0.5 40
2018-08-29 20:00:00 28.9 10 Noroeste 17 Noroeste 0 963.8 0.2 35
2018-08-29 19:00:00 29.6 7 Norte 16 Nordeste 0 963.4 -0.6 33
2018-08-29 18:00:00 29.6 4 Este 13 Norte 0 963.6 -0.9 33
2018-08-29 17:00:00 28.6 8 Norte 22 Norte 0 963.6 -1.2 36
2018-08-29 16:00:00 29.4 11 Noroeste 22 Norte 0 964 -1.1 35
2018-08-29 15:00:00 28.8 10 Noroeste 23 Norte 0 964.5 -0.7 36
2018-08-29 14:00:00 27.9 10 Noroeste 27 Noroeste 0 964.8 -0.2 39
2018-08-29 13:00:00 26.7 9 Noroeste 21 Noroeste 0 965.1 0.5 42
2018-08-29 12:00:00 26.1 12 Noroeste 22 Noroeste 0 965.2 0.8 45
2018-08-29 11:00:00 24.7 11 Noroeste 18 Noroeste 0 965 1.2 47
2018-08-29 10:00:00 23 4 Sur 12 Sudoeste 0 964.6 1.7 60
2018-08-29 09:00:00 19.6 8 Sudoeste 11 Sudoeste 0 964.4 2.4 74
2018-08-29 08:00:00 18.3 7 Oeste 11 Oeste 0 963.8 1.8 75
2018-08-29 07:00:00 19.2 8 Oeste 17 Norte 0 962.9 0.7 69
2018-08-29 06:00:00 19.9 10 Sur 17 Sudoeste 0 962 -0.4 62
2018-08-29 05:00:00 20.3 9 Sudoeste 31 Sur 0 962 -3 64
2018-08-29 04:00:00 21.1 18 Sur 36 Sur 0 962.2 -2.6 58
2018-08-29 03:00:00 19.7 10 Sur 19 Sur 0.4 962.4 -1.4 72
2018-08-29 02:00:00 19.9 21 Sudoeste 59 Sudoeste 1.2 965 3.5 71
2018-08-29 01:00:00 23.8 27 Sudoeste 49 Sudoeste 0.2 964.8 0.3 48
2018-08-29 00:00:00 24.5 15 Sudoeste 34 Sudoeste 0 963.8 2.8 51
2018-08-28 23:00:00 22.9 14 Este 29 Este 0.2 961.5 -0.3 60
2018-08-28 22:00:00 24.8 8 Noroeste 31 Oeste 0 964.5 4.2 55
2018-08-28 21:00:00 25.9 11 Este 31 Sudeste 0 961 0.2 47
2018-08-28 20:00:00 30.4 19 Sur 43 Sur 0 961.8 0.4 27
2018-08-28 19:00:00 30.7 17 Sudeste 38 Sudeste 0 960.3 -1.4 27
2018-08-28 18:00:00 29.6 17 Sudeste 41 Sudeste 0 960.8 -1.3 45
2018-08-28 17:00:00 30.7 25 Sudeste 40 Sudeste 0 961.4 -1.4 44
2018-08-28 16:00:00 32.3 6 Norte 15 Norte 0 961.7 -1.6 31
2018-08-28 15:00:00 31.4 9 Norte 18 Norte 0 962.1 -1.4 35
2018-08-28 14:00:00 31.5 8 Nordeste 17 Norte 0 962.8 -0.8 41
2018-08-28 13:00:00 29.7 5 Norte 14 Norte 0 963.3 -0.1 47
2018-08-28 12:00:00 28 6 Nordeste 13 Norte 0 963.5 0.1 54
2018-08-28 11:00:00 25.3 7 Norte 16 Noroeste 0 963.6 0.5 64
2018-08-28 10:00:00 23 6 Este 11 Este 0 963.4 0.8 73
2018-08-28 09:00:00 20.6 3 Este 8 Sur 0 963.4 1.2 81
2018-08-28 08:00:00 20.2 3 Oeste 8 Oeste 0 963.1 0.7 81
2018-08-28 07:00:00 20.4 2 Nordeste 5 Norte 0 962.6 -0.1 80
2018-08-28 06:00:00 21.5 3 Nordeste 12 Norte 0 962.2 -0.5 75
2018-08-28 05:00:00 24.4 6 Sudeste 16 Sur 0 962.4 -0.5 61
2018-08-28 04:00:00 24.5 4 Sur 19 Sudeste 0 962.7 -0.4 65
2018-08-28 03:00:00 25 4 Sur 32 Sur 0 962.7 -0.4 63
2018-08-28 02:00:00 25.4 16 Sur 30 Sur 0 962.9 -0.1 62
2018-08-28 01:00:00 25.7 8 Sur 25 Sudeste 0 963.1 0.3 61
2018-08-28 00:00:00 26.1 5 Sur 18 Sur 0 963.1 1 59
2018-08-27 23:00:00 27.1 9 Sur 20 Sudeste 0 963 1.4 54
2018-08-27 22:00:00 27.8 7 Este 16 Sudeste 0 962.8 1.3 51
2018-08-27 21:00:00 29.5 12 Este 23 Este 0 962.1 0.5 46
2018-08-27 20:00:00 32.6 10 Norte 18 Norte 0 961.6 -0.2 20
2018-08-27 19:00:00 33.6 8 Nordeste 19 Norte 0 961.5 -1 20
2018-08-27 18:00:00 33.4 9 Norte 22 Norte 0 961.6 -1.3 20
2018-08-27 17:00:00 32.8 10 Norte 21 Nordeste 0 961.8 -1.6 22
2018-08-27 16:00:00 32.1 10 Norte 19 Norte 0 962.5 -1.3 24
2018-08-27 15:00:00 31.1 9 Nordeste 17 Norte 0 962.9 -1.2 27
2018-08-27 14:00:00 29.5 7 Nordeste 16 Nordeste 0 963.4 -0.6 29
2018-08-27 13:00:00 29 6 Nordeste 14 Norte 0 963.8 0 31
2018-08-27 12:00:00 26.9 5 Nordeste 15 Norte 0 964.1 0.5 33
2018-08-27 11:00:00 25.9 2 Norte 9 Norte 0 964 0.8 37
2018-08-27 10:00:00 23.6 3 Sur 13 Sudoeste 0 963.8 1 46
2018-08-27 09:00:00 20.3 8 Sudoeste 15 Sudoeste 0 963.6 1.2 57
2018-08-27 08:00:00 18.7 9 Sudoeste 17 Sudoeste 0 963.2 0.8 62
2018-08-27 07:00:00 18.9 12 Sudoeste 17 Sudoeste 0 962.8 0.6 61
2018-08-27 06:00:00 19.6 11 Sudoeste 21 Sudoeste 0 962.4 0.1 56
2018-08-27 05:00:00 20.1 14 Sudoeste 20 Sudoeste 0 962.4 0 53
2018-08-27 04:00:00 20.4 14 Sudoeste 20 Sudoeste 0 962.2 -0.2 53
2018-08-27 03:00:00 21 13 Sudoeste 20 Sudoeste 0 962.3 0.1 51
2018-08-27 02:00:00 21.1 11 Sudoeste 17 Sudoeste 0 962.4 0.5 48
2018-08-27 01:00:00 21.9 7 Sudoeste 17 Sur 0 962.4 1 44
2018-08-27 00:00:00 21.8 10 Sudoeste 13 Sudoeste 0 962.2 1.2 42
2018-08-26 23:00:00 22.2 4 Oeste 7 Oeste 0 961.9 1.1 40
2018-08-26 22:00:00 23.7 3 Oeste 7 Sudoeste 0 961.4 0.5 36
2018-08-26 21:00:00 26.2 0 Calma 10 Este 0 961 0.1 31
2018-08-26 20:00:00 28.2 4 Este 13 Norte 0 960.8 -0.4 29
2018-08-26 19:00:00 28.4 6 Nordeste 21 Norte 0 960.9 -0.8 27
2018-08-26 18:00:00 28.2 9 Norte 21 Nordeste 0 960.9 -1.5 29
2018-08-26 17:00:00 28.2 10 Norte 21 Norte 0 961.2 -1.7 29
2018-08-26 16:00:00 27.5 11 Norte 22 Noroeste 0 961.7 -1.9 29
2018-08-26 15:00:00 26.7 9 Norte 20 Norte 0 962.4 -1.9 31
2018-08-26 14:00:00 25.8 6 Nordeste 15 Nordeste 0 962.9 -1.8 31
2018-08-26 13:00:00 24.3 5 Nordeste 15 Norte 0 963.6 -1 34
2018-08-26 12:00:00 22.8 3 Noroeste 12 Oeste 0 964.3 -0.2 37
2018-08-26 11:00:00 20.4 7 Norte 11 Norte 0 964.7 0.6 43
2018-08-26 10:00:00 18.6 3 Nordeste 8 Nordeste 0 964.6 0.8 49
2018-08-26 09:00:00 16.6 5 Sudoeste 13 Sudoeste 0 964.5 0.7 55
2018-08-26 08:00:00 15 7 Sudoeste 10 Sudoeste 0 964.1 0.1 60
2018-08-26 07:00:00 15.2 7 Sudoeste 16 Sudoeste 0 963.8 -0.4 59
2018-08-26 06:00:00 15.9 10 Sudoeste 18 Sudoeste 0 963.8 -0.6 57
2018-08-26 05:00:00 16.3 11 Sudoeste 19 Sudoeste 0 964 -0.5 56
2018-08-26 04:00:00 16.4 8 Sudoeste 16 Sudoeste 0 964.2 -0.2 54
2018-08-26 03:00:00 16.8 8 Sudoeste 15 Oeste 0 964.4 0.1 51
2018-08-26 02:00:00 17.6 12 Oeste 22 Oeste 0 964.5 0.8 48
2018-08-26 01:00:00 18.8 11 Oeste 26 Oeste 0 964.4 1.3 46
2018-08-26 00:00:00 19.6 13 Oeste 27 Noroeste 0 964.3 2.2 44
2018-08-25 23:00:00 20.5 16 Noroeste 25 Oeste 0 963.7 2.4 42
2018-08-25 22:00:00 21.8 13 Noroeste 22 Noroeste 0 963.1 1.7 39
2018-08-25 21:00:00 23.3 10 Noroeste 21 Noroeste 0 962.1 0.8 34
2018-08-25 20:00:00 24.9 12 Noroeste 28 Noroeste 0 961.3 -0.2 31
2018-08-25 19:00:00 25.8 13 Noroeste 32 Norte 0 961.4 -0.6 30
2018-08-25 18:00:00 25.7 18 Noroeste 29 Noroeste 0 961.3 -1.2 28
2018-08-25 17:00:00 26.9 17 Norte 27 Norte 0 961.5 -1.6 25
2018-08-25 16:00:00 26.8 17 Noroeste 31 Norte 0 962 -1.7 26
2018-08-25 15:00:00 26.6 13 Noroeste 28 Noroeste 0 962.5 -1.8 27
2018-08-25 14:00:00 25.5 12 Noroeste 33 Noroeste 0 963.1 -1.4 28
2018-08-25 13:00:00 24.4 13 Noroeste 28 Norte 0 963.7 -1.1 30
2018-08-25 12:00:00 22.5 15 Noroeste 24 Noroeste 0 964.3 -0.5 34
2018-08-25 11:00:00 21.2 11 Oeste 20 Oeste 0 964.5 -0.3 42
2018-08-25 10:00:00 19.1 10 Oeste 21 Sudoeste 0 964.8 0.3 50
2018-08-25 09:00:00 16.9 12 Sudoeste 19 Sudoeste 0 964.8 0.4 60
2018-08-25 08:00:00 15.2 10 Sudoeste 16 Sudoeste 0 964.8 0.3 68
2018-08-25 07:00:00 15.1 4 Sudoeste 10 Sudoeste 0 964.5 -0.2 68
2018-08-25 06:00:00 15.9 6 Sudoeste 16 Sudoeste 0 964.4 -0.6 63
2018-08-25 05:00:00 16.9 9 Sudoeste 21 Sudoeste 0 964.5 -0.9 60
2018-08-25 04:00:00 17.2 10 Sudoeste 22 Sudoeste 0 964.7 -0.7 59
2018-08-25 03:00:00 18.3 11 Oeste 25 Oeste 0 965 -0.1 55
2018-08-25 02:00:00 19.1 10 Oeste 18 Oeste 0 965.4 0.3 51
2018-08-25 01:00:00 19.9 5 Oeste 17 Oeste 0 965.4 0.8 51
2018-08-25 00:00:00 20.8 8 Noroeste 23 Noroeste 0 965.1 1.7 49
2018-08-24 23:00:00 21.5 16 Noroeste 35 Noroeste 0 965.1 2.1 48
2018-08-24 22:00:00 22.9 15 Noroeste 36 Noroeste 0 964.6 1.6 45
2018-08-24 21:00:00 25.1 14 Noroeste 30 Noroeste 0 963.4 0.4 38
2018-08-24 20:00:00 26.6 21 Noroeste 35 Noroeste 0 963 -0.4 33
2018-08-24 19:00:00 28.2 21 Noroeste 38 Noroeste 0 963 -0.9 31
2018-08-24 18:00:00 29 25 Noroeste 37 Noroeste 0 963 -1.5 29
2018-08-24 17:00:00 29.4 21 Noroeste 41 Noroeste 0 963.4 -1.6 28
2018-08-24 16:00:00 29.5 21 Noroeste 37 Noroeste 0 963.9 -1.8 28
2018-08-24 15:00:00 28.9 21 Noroeste 36 Noroeste 0 964.5 -1.6 26
2018-08-24 14:00:00 27.8 16 Noroeste 31 Noroeste 0 965 -1.4 30
2018-08-24 13:00:00 26.4 17 Noroeste 33 Oeste 0 965.7 -0.9 34
2018-08-24 12:00:00 25.3 18 Noroeste 30 Noroeste 0 966.1 -0.2 36
2018-08-24 11:00:00 24 17 Noroeste 31 Noroeste 0 966.4 0.5 41
2018-08-24 10:00:00 21.6 16 Oeste 26 Oeste 0 966.6 1.1 52
2018-08-24 09:00:00 19.7 10 Oeste 19 Oeste 0 966.3 1.1 62
2018-08-24 08:00:00 18.8 9 Oeste 18 Oeste 0 965.9 0.7 65
2018-08-24 07:00:00 18.9 11 Sudoeste 19 Oeste 0 965.5 0.1 65
2018-08-24 06:00:00 19.2 12 Sudoeste 19 Sudoeste 0 965.2 -0.4 64
2018-08-24 05:00:00 19.3 6 Sudoeste 13 Sudoeste 0 965.2 -0.5 64
2018-08-24 04:00:00 20.2 5 Oeste 13 Oeste 0 965.4 -0.3 61
2018-08-24 03:00:00 21.2 6 Sudoeste 21 Oeste 0 965.6 0.3 58
2018-08-24 02:00:00 22.4 12 Oeste 30 Noroeste 0 965.7 1.2 54
2018-08-24 01:00:00 23.6 10 Noroeste 24 Noroeste 0 965.7 1.6 52
2018-08-24 00:00:00 24.8 14 Noroeste 24 Noroeste 0 965.3 2.4 48
2018-08-23 23:00:00 26.5 13 Oeste 24 Oeste 0 964.5 2.2 34
2018-08-23 22:00:00 28.1 13 Noroeste 25 Noroeste 0 964.1 2.4 39
2018-08-23 21:00:00 29.4 4 Norte 17 Norte 0 962.9 0.9 31
2018-08-23 20:00:00 30.9 10 Noroeste 21 Noroeste 0 962.3 0.5 30
2018-08-23 19:00:00 31.7 9 Noroeste 21 Norte 0 961.7 -0.5 28
2018-08-23 18:00:00 32.1 13 Norte 20 Norte 0 962 -1.1 25
2018-08-23 17:00:00 32.5 5 Nordeste 24 Noroeste 0 961.8 -2 26
2018-08-23 16:00:00 32 8 Nordeste 19 Norte 0 962.2 -2 26
2018-08-23 15:00:00 31.4 8 Norte 18 Norte 0 963.1 -1.3 29
2018-08-23 14:00:00 30.3 8 Norte 19 Norte 0 963.8 -0.8 33
2018-08-23 13:00:00 28.7 10 Norte 18 Norte 0 964.2 -0.1 37
2018-08-23 12:00:00 27.2 7 Norte 18 Norte 0 964.4 0.2 42
2018-08-23 11:00:00 25.8 12 Norte 19 Norte 0 964.6 0.8 47
2018-08-23 10:00:00 24.5 5 Nordeste 20 Norte 0 964.3 0.9 47
2018-08-23 09:00:00 21.6 2 Oeste 10 Sudoeste 0 964.2 0.8 49
2018-08-23 08:00:00 20.2 5 Sur 10 Sur 0 963.8 0.5 49
2018-08-23 07:00:00 20 8 Sudoeste 16 Sudoeste 0 963.4 0.3 54
2018-08-23 06:00:00 20.1 5 Sudoeste 9 Oeste 0 963.4 0.3 59
2018-08-23 05:00:00 20.5 3 Oeste 10 Oeste 0 963.3 -0.4 46
2018-08-23 04:00:00 22.1 5 Noroeste 17 Sudoeste 0 963.1 -0.7 42
2018-08-23 03:00:00 23.5 10 Sudoeste 19 Sudoeste 0 963.1 -0.3 46
2018-08-23 02:00:00 23.8 7 Sur 13 Sudoeste 0 963.7 0.5 45
2018-08-23 01:00:00 24.6 5 Sur 12 Sudoeste 0 963.8 0.8 45
2018-08-23 00:00:00 25.4 6 Sur 16 Sudeste 0 963.4 1.1 44